Time;durP1;ratioP1;P1;durP2;ratioP2;P2;SDS_P1;SDS_P2;PMS_P1;PMS_P2;Temp;Humidity;BMP_temperature;BMP_pressure;BME280_temperature;BME280_humidity;BME280_pressure;Samples;Min_cycle;Max_cycle;Signal;HPM_P1;HPM_P2
2023/04/06 00:01:55;;;;;;;12.35;7.28;;;;;;;10.18;42.19;101744.47;5118861;28;20103;-68
2023/04/06 00:04:23;;;;;;;11.23;6.80;;;;;;;10.17;42.67;101750.03;5119472;28;20112;-69
2023/04/06 00:06:51;;;;;;;11.32;6.97;;;;;;;10.14;42.64;101748.56;5117006;28;20136;-69
2023/04/06 00:09:19;;;;;;;12.48;5.97;;;;;;;10.13;42.81;101748.78;5117277;28;20141;-69
2023/04/06 00:11:47;;;;;;;11.52;6.53;;;;;;;10.08;42.65;101744.00;5118904;28;20043;-69
2023/04/06 00:14:17;;;;;;;13.50;7.05;;;;;;;10.08;42.33;101733.25;5112656;28;20055;-69
2023/04/06 00:16:46;;;;;;;9.98;6.68;;;;;;;10.07;42.22;101740.47;5119603;28;20039;-69
2023/04/06 00:19:14;;;;;;;12.02;6.78;;;;;;;10.05;42.72;101742.53;5119995;28;20053;-69
2023/04/06 00:21:41;;;;;;;12.63;7.30;;;;;;;10.03;42.92;101733.84;5119990;28;20218;-69
2023/04/06 00:24:09;;;;;;;11.43;6.90;;;;;;;10.02;42.67;101737.56;5113158;28;20050;-69
2023/04/06 00:26:37;;;;;;;9.35;6.00;;;;;;;10.01;42.37;101729.69;5120354;28;20054;-68
2023/04/06 00:29:05;;;;;;;9.60;6.38;;;;;;;9.98;42.92;101736.28;5116331;28;20134;-69
2023/04/06 00:31:33;;;;;;;11.88;6.50;;;;;;;9.98;42.82;101730.09;5120050;28;20196;-69
2023/04/06 00:34:03;;;;;;;10.05;6.22;;;;;;;9.96;42.40;101726.75;5120489;28;20130;-69
2023/04/06 00:36:31;;;;;;;12.55;6.80;;;;;;;9.93;42.68;101725.31;5120441;28;20429;-69
2023/04/06 00:38:59;;;;;;;13.18;6.68;;;;;;;9.92;42.86;101728.19;5118271;28;20333;-69
2023/04/06 00:41:26;;;;;;;12.23;6.50;;;;;;;9.93;42.56;101727.16;5118645;28;20047;-69
2023/04/06 00:43:55;;;;;;;10.57;6.43;;;;;;;9.89;42.72;101720.50;5119347;28;20040;-69
2023/04/06 00:46:23;;;;;;;10.73;6.47;;;;;;;9.91;42.36;101723.84;5112655;28;20047;-68
2023/04/06 00:48:51;;;;;;;15.13;6.47;;;;;;;9.87;42.85;101712.66;5118078;28;20351;-70
2023/04/06 00:51:21;;;;;;;11.82;6.63;;;;;;;9.88;43.11;101718.84;5113515;28;20137;-68
2023/04/06 00:53:48;;;;;;;13.85;6.72;;;;;;;9.85;42.53;101709.34;5119623;28;20071;-68
2023/04/06 00:56:16;;;;;;;10.88;6.18;;;;;;;9.84;42.62;101705.00;5116521;28;20047;-68
2023/04/06 00:58:44;;;;;;;11.98;7.32;;;;;;;9.81;42.99;101705.38;5117251;28;20047;-69
2023/04/06 01:01:12;;;;;;;10.60;6.45;;;;;;;9.82;43.17;101700.84;5119446;28;20042;-69
2023/04/06 01:03:42;;;;;;;15.43;6.88;;;;;;;9.79;42.51;101705.59;5118687;28;20039;-69
2023/04/06 01:06:09;;;;;;;11.80;6.95;;;;;;;9.78;42.97;101695.88;5118632;28;20048;-69
2023/04/06 01:08:39;;;;;;;11.82;6.95;;;;;;;9.77;43.38;101696.91;5115819;28;20556;-69
2023/04/06 01:11:06;;;;;;;12.52;6.65;;;;;;;9.75;43.35;101688.22;5110839;28;20067;-68
2023/04/06 01:13:34;;;;;;;12.70;7.15;;;;;;;9.74;43.25;101689.22;5115552;28;20063;-69
2023/04/06 01:16:03;;;;;;;10.88;6.97;;;;;;;9.73;42.96;101690.25;5117374;28;20528;-69
2023/04/06 01:18:31;;;;;;;14.98;6.88;;;;;;;9.72;42.91;101695.81;5122842;28;20074;-68
2023/04/06 01:20:59;;;;;;;8.60;5.97;;;;;;;9.71;43.10;101692.31;5121069;28;20123;-69
2023/04/06 01:23:28;;;;;;;14.20;7.88;;;;;;;9.69;43.17;101685.47;5122089;28;20055;-69
2023/04/06 01:25:56;;;;;;;13.13;6.93;;;;;;;9.70;43.04;101687.97;5123552;28;20049;-68
2023/04/06 01:28:24;;;;;;;13.32;7.38;;;;;;;9.70;42.64;101684.44;5119352;28;20515;-69
2023/04/06 01:30:52;;;;;;;9.30;6.57;;;;;;;9.68;42.99;101681.97;5121648;28;20358;-69
2023/04/06 01:33:19;;;;;;;15.07;7.15;;;;;;;9.67;43.14;101680.31;5123385;28;20075;-69
2023/04/06 01:35:47;;;;;;;11.80;7.22;;;;;;;9.67;42.72;101677.63;5120862;28;20048;-69
2023/04/06 01:38:15;;;;;;;11.85;6.35;;;;;;;9.66;42.64;101683.19;5119890;28;20086;-67
2023/04/06 01:40:44;;;;;;;15.02;7.93;;;;;;;9.64;42.68;101667.28;5118219;28;20039;-68
2023/04/06 01:43:12;;;;;;;11.13;7.20;;;;;;;9.64;43.19;101671.81;5122631;28;20111;-69
2023/04/06 01:45:40;;;;;;;13.10;7.10;;;;;;;9.63;42.89;101667.47;5121442;28;20042;-68
2023/04/06 01:48:08;;;;;;;13.82;7.70;;;;;;;9.61;42.88;101670.34;5116296;28;20071;-69
2023/04/06 01:50:36;;;;;;;12.68;7.32;;;;;;;9.59;43.16;101664.34;5122679;28;20067;-68
2023/04/06 01:53:04;;;;;;;10.75;6.93;;;;;;;9.59;43.44;101664.34;5121846;28;20047;-69
2023/04/06 01:55:32;;;;;;;13.15;7.80;;;;;;;9.57;43.03;101662.88;5121488;28;20085;-69
2023/04/06 01:58:01;;;;;;;11.98;7.20;;;;;;;9.56;43.36;101654.00;5118299;28;20123;-69
2023/04/06 02:00:29;;;;;;;12.65;7.82;;;;;;;9.54;43.14;101661.41;5119781;28;20043;-69
2023/04/06 02:02:56;;;;;;;12.50;7.85;;;;;;;9.54;43.91;101653.38;5122900;28;20131;-69
2023/04/06 02:05:24;;;;;;;14.35;7.82;;;;;;;9.53;43.73;101653.56;5119586;28;20036;-68
2023/04/06 02:07:52;;;;;;;13.23;7.30;;;;;;;9.51;43.29;101644.88;5119408;28;20051;-70
2023/04/06 02:10:20;;;;;;;14.30;8.00;;;;;;;9.50;43.59;101644.03;5114796;28;20071;-69
2023/04/06 02:12:48;;;;;;;14.10;8.05;;;;;;;9.49;43.40;101644.25;5122703;28;20413;-68
2023/04/06 02:15:17;;;;;;;14.55;8.30;;;;;;;9.48;44.13;101639.91;5112849;28;20066;-66
2023/04/06 02:17:45;;;;;;;10.43;7.05;;;;;;;9.44;43.84;101634.09;5119915;28;20075;-68
2023/04/06 02:20:13;;;;;;;15.65;8.98;;;;;;;9.45;43.49;101638.44;5120408;28;20078;-69
2023/04/06 02:22:41;;;;;;;11.88;7.85;;;;;;;9.44;44.30;101634.94;5113519;28;20097;-69
2023/04/06 02:25:09;;;;;;;12.88;7.55;;;;;;;9.43;43.99;101632.44;5119172;28;20165;-67
2023/04/06 02:27:37;;;;;;;12.90;7.72;;;;;;;9.43;43.71;101629.75;5121013;28;20058;-69
2023/04/06 02:30:06;;;;;;;14.18;8.43;;;;;;;9.41;44.22;101631.81;5118158;28;20040;-68
2023/04/06 02:32:35;;;;;;;14.38;8.20;;;;;;;9.40;44.21;101635.50;5121896;28;20067;-68
2023/04/06 02:35:03;;;;;;;12.43;8.23;;;;;;;9.40;43.74;101624.78;5120675;28;20474;-68
2023/04/06 02:37:31;;;;;;;14.02;8.45;;;;;;;9.40;44.08;101622.09;5119580;28;20184;-68
2023/04/06 02:39:59;;;;;;;14.27;8.30;;;;;;;9.39;44.58;101623.13;5118381;28;20085;-67
2023/04/06 02:42:27;;;;;;;13.75;8.32;;;;;;;9.39;44.29;101617.75;5118776;28;20048;-69
2023/04/06 02:44:54;;;;;;;13.25;8.50;;;;;;;9.36;44.29;101608.25;5119075;28;20058;-69
2023/04/06 02:47:22;;;;;;;13.55;9.05;;;;;;;9.37;44.54;101606.38;5119884;28;20107;-69
2023/04/06 02:49:52;;;;;;;13.32;8.05;;;;;;;9.35;44.06;101600.38;5120390;28;20040;-70
2023/04/06 02:52:19;;;;;;;19.17;9.88;;;;;;;9.35;44.53;101603.06;5120586;28;20082;-68
2023/04/06 02:54:47;;;;;;;13.43;8.77;;;;;;;9.35;44.82;101600.38;5120858;28;20058;-69
2023/04/06 02:57:15;;;;;;;14.13;8.45;;;;;;;9.34;44.89;101591.50;5118112;28;20078;-68
2023/04/06 02:59:43;;;;;;;15.10;9.23;;;;;;;9.33;44.11;101587.16;5105054;28;20513;-69
2023/04/06 03:02:11;;;;;;;13.93;9.38;;;;;;;9.31;44.76;101597.28;5119172;28;20429;-69
2023/04/06 03:04:38;;;;;;;15.38;8.77;;;;;;;9.32;44.75;101600.78;5116159;28;20044;-68
2023/04/06 03:07:08;;;;;;;15.32;9.10;;;;;;;9.30;44.35;101594.78;5120049;28;20087;-69
2023/04/06 03:09:38;;;;;;;13.45;8.90;;;;;;;9.29;44.92;101580.53;5118404;28;20072;-68
2023/04/06 03:12:06;;;;;;;14.77;9.95;;;;;;;9.21;44.64;101579.84;5119175;28;20147;-68
2023/04/06 03:14:36;;;;;;;15.13;8.48;;;;;;;9.29;44.56;101574.34;5117343;28;20047;-68
2023/04/06 03:17:04;;;;;;;16.55;8.77;;;;;;;9.26;44.82;101583.63;5117759;28;20103;-68
2023/04/06 03:19:32;;;;;;;17.52;9.50;;;;;;;9.26;44.61;101578.25;5121140;28;20115;-69
2023/04/06 03:22:00;;;;;;;16.23;9.00;;;;;;;9.27;44.97;101587.94;5113882;28;20433;-69
2023/04/06 03:24:29;;;;;;;16.23;9.00;;;;;;;9.28;44.26;101584.25;5116660;28;20127;-69
2023/04/06 03:26:57;;;;;;;17.33;10.05;;;;;;;9.29;44.65;101577.84;5117983;28;20146;-69
2023/04/06 03:29:25;;;;;;;14.48;8.80;;;;;;;9.19;44.45;101563.97;5118280;28;20130;-69
2023/04/06 03:31:53;;;;;;;14.88;9.32;;;;;;;9.27;44.29;101565.66;5112058;28;20174;-69
2023/04/06 03:34:20;;;;;;;15.52;8.98;;;;;;;9.26;45.06;101566.69;5113698;28;20052;-69
2023/04/06 03:36:48;;;;;;;14.43;9.73;;;;;;;9.25;44.93;101565.84;5114712;28;20127;-69
2023/04/06 03:39:35;;;;;;;19.15;9.75;;;;;;;9.24;44.45;101563.38;5109689;28;20058;-68
2023/04/06 03:42:02;;;;;;;15.18;10.05;;;;;;;9.24;44.52;101560.69;5119521;28;20047;-69
2023/04/06 03:44:30;;;;;;;14.38;9.02;;;;;;;9.21;44.79;101566.44;5115888;28;20059;-68
2023/04/06 03:46:58;;;;;;;16.27;10.13;;;;;;;9.23;44.66;101565.22;5118919;28;20054;-69
2023/04/06 03:49:26;;;;;;;14.65;9.50;;;;;;;9.23;44.17;101570.59;5120081;28;20070;-68
2023/04/06 03:51:54;;;;;;;15.60;9.52;;;;;;;9.22;44.79;101560.06;5119762;28;20052;-69
2023/04/06 03:54:22;;;;;;;15.85;9.77;;;;;;;9.20;44.30;101570.97;5120475;28;20047;-69
2023/04/06 03:56:51;;;;;;;17.90;8.85;;;;;;;9.19;44.34;101560.44;5115912;28;20039;-69
2023/04/06 03:59:19;;;;;;;14.18;9.05;;;;;;;9.12;44.71;101550.50;5111137;28;20047;-69
2023/04/06 04:01:47;;;;;;;18.50;9.68;;;;;;;9.18;44.36;101556.09;5118215;28;20047;-68
2023/04/06 04:04:15;;;;;;;16.95;9.90;;;;;;;9.19;45.16;101568.50;5121072;28;20330;-68
2023/04/06 04:06:43;;;;;;;14.02;8.90;;;;;;;9.17;45.08;101566.00;5108827;28;20047;-68
2023/04/06 04:09:10;;;;;;;17.90;10.10;;;;;;;9.15;44.42;101568.06;5115668;28;20073;-68
2023/04/06 04:11:38;;;;;;;14.90;8.90;;;;;;;9.14;44.96;101567.22;5109195;28;20127;-69
2023/04/06 04:14:07;;;;;;;13.88;9.50;;;;;;;9.14;44.62;101564.53;5116672;28;20062;-68
2023/04/06 04:16:35;;;;;;;18.45;10.13;;;;;;;9.13;45.00;101578.16;5119013;28;20420;-68
2023/04/06 04:19:03;;;;;;;16.00;9.77;;;;;;;9.11;44.77;101570.28;5120628;28;20047;-68
2023/04/06 04:21:31;;;;;;;14.88;9.98;;;;;;;9.11;45.04;101567.63;5118962;28;20079;-69
2023/04/06 04:23:59;;;;;;;15.23;9.48;;;;;;;9.10;45.07;101570.50;5111870;28;20054;-69
2023/04/06 04:26:27;;;;;;;14.18;8.73;;;;;;;9.09;45.20;101569.66;5119147;28;20067;-68
2023/04/06 04:28:55;;;;;;;15.02;9.07;;;;;;;9.10;44.94;101575.84;5117361;28;20107;-69
2023/04/06 04:31:24;;;;;;;15.60;9.63;;;;;;;9.05;45.20;101564.88;5119566;28;20048;-68
2023/04/06 04:33:52;;;;;;;15.73;9.90;;;;;;;9.07;44.87;101571.72;5120138;28;20056;-69
2023/04/06 04:36:19;;;;;;;13.93;9.00;;;;;;;9.06;45.14;101570.06;5117707;28;20399;-69
2023/04/06 04:38:47;;;;;;;18.73;10.38;;;;;;;9.05;44.90;101565.72;5115874;28;20079;-68
2023/04/06 04:41:15;;;;;;;18.08;9.80;;;;;;;9.04;45.14;101560.53;5119600;28;20040;-69
2023/04/06 04:43:43;;;;;;;16.08;9.40;;;;;;;9.03;45.35;101565.06;5118284;28;20071;-70
2023/04/06 04:46:11;;;;;;;17.70;9.80;;;;;;;9.01;45.41;101551.03;5112362;28;20544;-69
2023/04/06 04:48:40;;;;;;;16.08;10.25;;;;;;;9.03;45.05;101554.34;5121000;28;20069;-69
2023/04/06 04:51:08;;;;;;;13.05;9.27;;;;;;;9.02;44.77;101558.06;5116482;28;20051;-69
2023/04/06 04:53:36;;;;;;;14.43;9.27;;;;;;;8.98;44.51;101558.63;5120030;28;20427;-70
2023/04/06 04:56:04;;;;;;;16.00;9.50;;;;;;;9.00;45.63;101554.75;5110258;28;20067;-68
2023/04/06 04:58:32;;;;;;;14.27;9.48;;;;;;;8.91;45.80;101539.81;5119939;28;20562;-69
2023/04/06 05:01:00;;;;;;;14.45;9.45;;;;;;;8.98;45.38;101543.38;5121147;28;20270;-69
2023/04/06 05:03:28;;;;;;;15.55;9.82;;;;;;;8.99;45.29;101547.72;5122414;28;20047;-70
2023/04/06 05:05:57;;;;;;;20.77;9.80;;;;;;;8.99;45.17;101550.41;5119907;28;20138;-69
2023/04/06 05:08:25;;;;;;;15.48;9.75;;;;;;;8.98;45.67;101548.75;5112407;28;20058;-69
2023/04/06 05:10:53;;;;;;;14.15;9.18;;;;;;;8.98;45.15;101551.44;5122736;28;20609;-69
2023/04/06 05:13:21;;;;;;;16.88;9.85;;;;;;;8.97;45.56;101552.44;5122389;28;20075;-68
2023/04/06 05:15:49;;;;;;;16.08;10.07;;;;;;;8.97;45.49;101549.75;5118990;28;20108;-71
2023/04/06 05:18:17;;;;;;;17.13;9.75;;;;;;;8.90;45.82;101545.38;5123348;28;20047;-71
2023/04/06 05:20:45;;;;;;;16.35;9.65;;;;;;;8.97;45.48;101548.94;5123267;28;20079;-68
2023/04/06 05:23:14;;;;;;;16.08;9.82;;;;;;;8.96;45.29;101553.47;5119787;28;20048;-70
2023/04/06 05:25:42;;;;;;;18.70;9.60;;;;;;;8.96;45.60;101552.63;5117007;28;20074;-67
2023/04/06 05:28:10;;;;;;;15.85;9.23;;;;;;;8.96;45.67;101552.63;5116179;28;20054;-66
2023/04/06 05:30:38;;;;;;;19.88;11.05;;;;;;;8.95;45.36;101557.16;5116621;28;20147;-70
2023/04/06 05:33:06;;;;;;;14.18;9.70;;;;;;;8.97;45.18;101554.28;5123771;28;20071;-70
2023/04/06 05:35:34;;;;;;;18.10;9.93;;;;;;;8.96;45.62;101552.63;5120846;28;20043;-69
2023/04/06 05:38:02;;;;;;;19.73;10.98;;;;;;;8.89;46.04;101547.22;4765342;28;10000577;-67
2023/04/06 05:40:31;;;;;;;16.60;10.73;;;;;;;8.88;45.54;101550.94;5120839;28;20115;-70
2023/04/06 05:42:59;;;;;;;16.73;10.55;;;;;;;8.81;45.49;101536.63;5111938;28;20408;-70
2023/04/06 05:45:27;;;;;;;19.50;10.25;;;;;;;8.90;46.08;101545.38;5118479;28;20520;-69
2023/04/06 05:47:55;;;;;;;17.63;10.32;;;;;;;8.92;46.10;101551.38;5114226;28;20104;-69
2023/04/06 05:50:23;;;;;;;19.50;10.73;;;;;;;8.92;45.94;101552.19;5118596;28;20040;-70
2023/04/06 05:52:50;;;;;;;16.08;10.07;;;;;;;8.90;45.91;101545.38;5119968;28;20174;-68
2023/04/06 05:55:18;;;;;;;17.48;9.40;;;;;;;8.92;46.00;101551.38;5116427;28;20107;-69
2023/04/06 05:57:48;;;;;;;15.35;10.35;;;;;;;8.93;45.64;101547.66;5116410;28;20055;-69
2023/04/06 06:00:16;;;;;;;14.93;9.43;;;;;;;8.93;46.05;101547.66;5117839;28;20078;-69
2023/04/06 06:02:44;;;;;;;15.35;9.73;;;;;;;8.92;45.62;101548.69;5119203;28;20043;-69
2023/04/06 06:05:12;;;;;;;15.18;9.18;;;;;;;8.93;45.94;101555.72;5115963;28;20048;-69
2023/04/06 06:07:40;;;;;;;15.27;9.73;;;;;;;8.90;45.73;101542.69;5117457;28;20043;-70
2023/04/06 06:10:09;;;;;;;14.07;9.25;;;;;;;8.95;45.64;101548.31;5110193;28;20056;-68
2023/04/06 06:12:37;;;;;;;14.38;9.25;;;;;;;8.94;45.64;101549.31;5114793;28;20367;-69
2023/04/06 06:15:08;;;;;;;17.00;9.43;;;;;;;8.93;45.76;101556.53;5117238;28;20130;-70
2023/04/06 06:17:37;;;;;;;17.90;9.63;;;;;;;8.91;45.81;101553.22;5117943;28;20063;-68
2023/04/06 06:20:07;;;;;;;14.13;8.85;;;;;;;8.91;45.36;101558.59;5117626;28;20051;-68
2023/04/06 06:22:35;;;;;;;18.85;9.27;;;;;;;8.84;46.08;101535.41;5120097;28;20069;-68
2023/04/06 06:25:03;;;;;;;13.50;9.15;;;;;;;8.92;45.72;101554.06;5108309;28;20530;-69
2023/04/06 06:27:31;;;;;;;15.48;9.45;;;;;;;8.90;46.11;101548.06;5115054;28;20146;-69
2023/04/06 06:29:59;;;;;;;14.32;8.65;;;;;;;8.90;46.36;101546.19;5119036;28;20138;-68
2023/04/06 06:32:28;;;;;;;14.73;9.20;;;;;;;8.91;45.83;101549.72;5121783;28;20043;-68
2023/04/06 06:34:56;;;;;;;14.98;9.18;;;;;;;8.91;45.92;101553.22;5115393;28;20081;-68
2023/04/06 06:37:24;;;;;;;14.43;8.57;;;;;;;8.90;45.79;101548.06;5119258;28;20074;-68
2023/04/06 06:39:52;;;;;;;14.48;9.00;;;;;;;8.82;45.91;101540.97;5114714;28;20138;-68
2023/04/06 06:42:20;;;;;;;15.27;9.00;;;;;;;8.82;46.58;101539.13;5120373;28;20130;-68
2023/04/06 06:44:48;;;;;;;14.15;8.50;;;;;;;8.90;46.45;101548.88;5119096;28;20039;-70
2023/04/06 06:47:15;;;;;;;16.20;8.70;;;;;;;8.91;46.42;101547.84;5118511;28;20116;-67
2023/04/06 06:49:45;;;;;;;16.20;8.60;;;;;;;8.91;46.46;101550.53;5113806;28;20040;-68
2023/04/06 06:52:12;;;;;;;15.27;8.35;;;;;;;8.92;45.98;101548.69;5115601;28;20075;-68
2023/04/06 06:54:40;;;;;;;14.05;8.55;;;;;;;8.92;45.85;101543.31;5119749;28;20052;-70
2023/04/06 06:57:08;;;;;;;14.52;9.02;;;;;;;8.93;45.88;101545.81;5115514;28;20086;-69
2023/04/06 06:59:36;;;;;;;17.75;9.18;;;;;;;8.92;46.45;101548.69;5119151;28;20044;-70
2023/04/06 07:02:04;;;;;;;13.73;9.13;;;;;;;8.91;46.01;101550.53;5120559;28;20116;-68
2023/04/06 07:04:32;;;;;;;14.35;7.97;;;;;;;8.86;46.67;101538.75;5115711;28;20105;-69
2023/04/06 07:07:02;;;;;;;12.05;7.95;;;;;;;8.91;46.42;101541.66;5120587;28;20051;-70
2023/04/06 07:09:30;;;;;;;12.40;7.93;;;;;;;8.89;46.13;101549.91;5118697;28;20459;-68
2023/04/06 07:11:58;;;;;;;13.25;7.68;;;;;;;8.92;46.61;101543.31;5115150;28;20260;-70
2023/04/06 07:14:26;;;;;;;12.60;8.43;;;;;;;8.92;46.93;101546.84;5119140;28;20557;-70
2023/04/06 07:16:54;;;;;;;12.88;8.20;;;;;;;8.93;46.37;101543.13;5120501;28;20052;-69
2023/04/06 07:19:22;;;;;;;15.32;8.80;;;;;;;8.94;46.08;101536.75;5118595;28;20039;-69
2023/04/06 07:21:50;;;;;;;14.88;9.48;;;;;;;8.95;46.32;101546.44;5114788;28;20086;-69
2023/04/06 07:24:19;;;;;;;15.93;8.63;;;;;;;8.96;46.32;101544.59;5118190;28;20075;-68
2023/04/06 07:26:47;;;;;;;13.82;9.05;;;;;;;8.97;46.17;101538.22;5119548;28;20125;-69
2023/04/06 07:29:14;;;;;;;13.10;8.80;;;;;;;8.97;46.91;101541.72;5112987;28;21238;-69
2023/04/06 07:31:42;;;;;;;14.50;9.43;;;;;;;8.97;46.36;101540.91;5114461;28;20134;-69
2023/04/06 07:34:10;;;;;;;16.48;8.50;;;;;;;9.00;46.74;101544.00;5118985;28;20150;-69
2023/04/06 07:36:38;;;;;;;12.68;8.63;;;;;;;9.00;46.63;101545.88;5120518;28;20062;-69
2023/04/06 07:39:07;;;;;;;14.80;7.88;;;;;;;9.00;46.69;101537.81;5113878;28;20084;-69
2023/04/06 07:41:37;;;;;;;16.48;8.00;;;;;;;9.01;46.56;101553.72;5115536;28;20054;-69
2023/04/06 07:44:05;;;;;;;12.13;8.07;;;;;;;9.00;46.80;101538.66;5109133;28;20040;-68
2023/04/06 07:46:34;;;;;;;14.13;8.65;;;;;;;9.02;46.35;101531.25;5115156;28;20326;-68
2023/04/06 07:49:02;;;;;;;12.70;8.07;;;;;;;9.00;46.22;101527.09;5112043;28;20491;-69
2023/04/06 07:51:30;;;;;;;12.40;7.80;;;;;;;9.02;46.54;101531.25;5115177;28;20078;-68
2023/04/06 07:53:58;;;;;;;13.70;8.38;;;;;;;9.04;46.18;101525.69;5106658;28;20732;-69
2023/04/06 07:56:26;;;;;;;12.15;7.78;;;;;;;9.07;46.62;101534.16;5112062;28;20047;-70
2023/04/06 07:58:56;;;;;;;17.70;8.13;;;;;;;9.05;46.94;101533.53;5108325;28;20075;-70
2023/04/06 08:01:24;;;;;;;15.60;8.93;;;;;;;9.05;47.00;101538.06;5111909;28;20059;-70
2023/04/06 08:03:52;;;;;;;13.05;7.95;;;;;;;9.11;46.68;101532.75;5117488;28;20043;-68
2023/04/06 08:06:20;;;;;;;13.35;8.32;;;;;;;9.28;46.56;101530.59;5118329;28;20047;-68
2023/04/06 08:08:48;;;;;;;14.38;8.77;;;;;;;9.50;45.88;101535.88;5120487;28;20044;-68
2023/04/06 08:11:16;;;;;;;14.60;8.10;;;;;;;9.70;45.71;101534.13;5108514;28;20531;-68
2023/04/06 08:13:44;;;;;;;14.27;7.78;;;;;;;9.89;45.53;101528.03;4755218;28;9999989;-69
2023/04/06 08:16:13;;;;;;;13.57;8.07;;;;;;;10.09;44.68;101538.84;5116816;28;20043;-69
2023/04/06 08:18:41;;;;;;;16.27;8.65;;;;;;;10.24;44.21;101525.28;5105868;28;20081;-69
2023/04/06 08:21:09;;;;;;;13.23;8.85;;;;;;;10.47;43.81;101528.41;5111219;28;20143;-69
2023/04/06 08:23:37;;;;;;;12.63;7.85;;;;;;;10.64;43.77;101536.91;5113635;28;20051;-67
2023/04/06 08:26:05;;;;;;;15.80;8.20;;;;;;;10.81;43.33;101530.09;5102839;28;20161;-69
2023/04/06 08:28:34;;;;;;;12.52;7.90;;;;;;;10.96;43.08;101528.03;5108782;28;20475;-69
2023/04/06 08:31:04;;;;;;;13.30;8.55;;;;;;;11.04;43.00;101527.81;5105907;28;20308;-69
2023/04/06 08:33:36;;;;;;;13.23;7.70;;;;;;;11.17;42.79;101531.53;5119755;28;20047;-69
2023/04/06 08:36:11;;;;;;;10.98;7.53;;;;;;;11.10;43.09;101536.91;5121350;28;20054;-70
2023/04/06 08:38:40;;;;;;;13.20;7.85;;;;;;;10.90;43.36;101530.72;5116518;28;20064;-70
2023/04/06 08:41:09;;;;;;;12.95;8.25;;;;;;;10.68;43.90;101528.22;5121041;28;20071;-69
2023/04/06 08:43:43;;;;;;;12.40;6.90;;;;;;;10.48;44.47;101532.75;5113075;28;20066;-69
2023/04/06 08:46:12;;;;;;;12.93;7.85;;;;;;;10.33;45.27;101546.38;5108494;28;20101;-69
2023/04/06 08:48:42;;;;;;;13.50;7.47;;;;;;;10.21;45.34;101542.63;5119598;28;20101;-69
2023/04/06 08:51:11;;;;;;;17.52;7.95;;;;;;;10.10;45.81;101545.88;5119404;28;20049;-69
2023/04/06 08:53:40;;;;;;;13.82;7.75;;;;;;;10.02;45.79;101544.19;5120267;28;20048;-66
2023/04/06 08:56:10;;;;;;;12.57;7.50;;;;;;;9.98;46.58;101539.44;5117786;28;20108;-70
2023/04/06 08:58:40;;;;;;;17.30;9.40;;;;;;;9.93;46.44;101539.19;5113030;28;20056;-69
2023/04/06 09:01:10;;;;;;;12.48;8.07;;;;;;;9.90;46.65;101537.75;5107708;28;20067;-70
2023/04/06 09:03:39;;;;;;;13.07;8.57;;;;;;;9.87;46.70;101543.50;5118882;28;20043;-70
2023/04/06 09:06:11;;;;;;;13.60;7.50;;;;;;;9.84;46.97;101545.78;5119142;28;20067;-69
2023/04/06 09:08:40;;;;;;;12.15;7.13;;;;;;;9.82;46.82;101547.81;5108482;28;20044;-69
2023/04/06 09:11:09;;;;;;;15.45;8.43;;;;;;;9.81;46.77;101554.22;5110382;28;20491;-70
2023/04/06 09:13:48;;;;;;;13.98;8.00;;;;;;;9.78;46.73;101548.22;5118799;28;20075;-69
2023/04/06 09:16:17;;;;;;;13.73;7.63;;;;;;;9.74;47.35;101548.81;5119836;28;20059;-69
2023/04/06 09:18:45;;;;;;;11.38;7.28;;;;;;;9.76;47.69;101558.34;5112374;28;20055;-69
2023/04/06 09:21:18;;;;;;;12.75;7.47;;;;;;;9.76;47.18;101554.81;5118725;28;20067;-70
2023/04/06 09:23:48;;;;;;;11.48;6.80;;;;;;;9.75;47.06;101551.31;5106688;28;20569;-69
2023/04/06 09:26:18;;;;;;;15.43;8.13;;;;;;;9.75;47.96;101556.69;5115578;28;20058;-70
2023/04/06 09:28:48;;;;;;;15.48;7.72;;;;;;;9.76;48.05;101552.97;5117645;28;20054;-70
2023/04/06 09:31:17;;;;;;;17.20;9.13;;;;;;;9.81;47.73;101560.41;5119812;28;20055;-70
2023/04/06 09:33:46;;;;;;;13.18;7.47;;;;;;;9.78;48.20;101553.59;5116307;28;20054;-70
2023/04/06 09:36:16;;;;;;;10.60;7.53;;;;;;;9.80;48.50;101550.72;5123716;28;20044;-69
2023/04/06 09:38:55;;;;;;;10.85;7.38;;;;;;;9.78;48.60;101550.91;5119888;28;20135;-69
2023/04/06 09:41:27;;;;;;;12.55;6.93;;;;;;;9.77;48.92;101553.78;5112301;28;20040;-69
2023/04/06 09:44:03;;;;;;;13.40;7.80;;;;;;;9.74;49.41;101541.59;5112839;28;20052;-70
2023/04/06 09:46:33;;;;;;;11.15;6.82;;;;;;;9.80;48.83;101548.03;5110909;28;20047;-69
2023/04/06 09:49:22;;;;;;;14.18;8.15;;;;;;;9.77;49.02;101551.09;5108070;28;20348;-69
2023/04/06 09:51:56;;;;;;;13.57;8.57;;;;;;;9.76;50.11;101544.91;5122894;28;20054;-70
2023/04/06 09:54:26;;;;;;;16.73;8.02;;;;;;;9.74;49.75;101552.34;5123194;28;20043;-69
2023/04/06 09:56:59;;;;;;;15.23;8.00;;;;;;;9.69;50.56;101545.91;5113905;28;20072;-69
2023/04/06 09:59:37;;;;;;;14.00;7.68;;;;;;;9.73;50.30;101552.53;5102282;28;20052;-70
2023/04/06 10:02:06;;;;;;;14.23;7.43;;;;;;;9.73;50.24;101550.69;5117149;28;20051;-70
2023/04/06 10:04:43;;;;;;;12.25;6.78;;;;;;;9.74;50.53;101552.34;5122414;28;20051;-69
2023/04/06 10:07:13;;;;;;;12.40;6.75;;;;;;;9.75;49.78;101550.47;5123511;28;20070;-69
2023/04/06 10:09:41;;;;;;;10.15;6.25;;;;;;;9.67;50.60;101537.22;5119939;28;20119;-69
2023/04/06 10:12:09;;;;;;;9.65;6.65;;;;;;;9.78;50.43;101552.75;5119073;28;20043;-69
2023/04/06 10:14:37;;;;;;;10.40;5.95;;;;;;;9.79;50.35;101551.75;5110708;28;20052;-68
2023/04/06 10:17:06;;;;;;;9.88;6.28;;;;;;;9.78;50.85;101555.44;5119591;28;20052;-68
2023/04/06 10:19:42;;;;;;;17.20;6.60;;;;;;;9.76;51.49;101549.44;5121760;28;20036;-69
2023/04/06 10:22:16;;;;;;;9.60;5.75;;;;;;;9.79;50.89;101554.41;5123635;28;20047;-65
2023/04/06 10:24:44;;;;;;;10.20;5.97;;;;;;;9.79;51.02;101555.25;5118057;28;20063;-69
2023/04/06 10:27:12;;;;;;;7.78;5.60;;;;;;;9.81;51.22;101556.91;5121820;28;20051;-68
2023/04/06 10:29:48;;;;;;;11.25;6.45;;;;;;;9.81;51.15;101560.41;5120140;28;20292;-69
2023/04/06 10:32:16;;;;;;;11.40;6.13;;;;;;;9.80;51.70;101550.72;5123573;28;20050;-69
2023/04/06 10:34:44;;;;;;;10.80;6.18;;;;;;;9.79;51.84;101551.75;5110939;28;20044;-69
2023/04/06 10:37:14;;;;;;;14.40;6.15;;;;;;;9.78;51.36;101550.91;5122809;28;20131;-69
2023/04/06 10:39:54;;;;;;;9.45;5.38;;;;;;;9.78;51.74;101556.28;5119371;28;20070;-68
2023/04/06 10:42:25;;;;;;;11.65;5.28;;;;;;;9.78;51.99;101548.22;5120669;28;20215;-69
2023/04/06 10:44:52;;;;;;;8.30;5.00;;;;;;;9.71;52.20;101542.00;5104746;28;20060;-69
2023/04/06 10:47:20;;;;;;;10.32;5.00;;;;;;;9.79;52.46;101552.56;5121136;28;20054;-69
2023/04/06 10:49:48;;;;;;;8.27;4.75;;;;;;;9.80;51.78;101548.03;5112593;28;20056;-69
2023/04/06 10:52:17;;;;;;;8.55;4.60;;;;;;;9.99;51.83;101546.44;5116648;28;20055;-68
2023/04/06 10:54:45;;;;;;;9.00;5.10;;;;;;;10.21;51.07;101539.94;5116741;28;20051;-69
2023/04/06 10:57:17;;;;;;;6.07;4.05;;;;;;;10.55;50.92;101538.97;5106985;28;20086;-68
2023/04/06 10:59:45;;;;;;;7.40;3.95;;;;;;;10.83;50.62;101540.63;5112386;28;20410;-68
2023/04/06 11:02:21;;;;;;;8.50;4.95;;;;;;;11.00;49.78;101528.44;5120960;28;20108;-68
2023/04/06 11:04:57;;;;;;;9.77;3.72;;;;;;;11.25;49.66;101523.22;5120082;28;20584;-68
2023/04/06 11:07:28;;;;;;;7.90;3.88;;;;;;;11.43;48.92;101531.47;5117827;28;20109;-68
2023/04/06 11:09:57;;;;;;;7.03;3.55;;;;;;;11.63;48.90;101526.88;5118391;28;20047;-67
2023/04/06 11:12:42;;;;;;;4.53;3.13;;;;;;;11.96;48.49;101532.16;5120374;28;20433;-68
2023/04/06 11:15:11;;;;;;;5.72;3.67;;;;;;;12.05;48.38;101527.34;5106708;28;20138;-68
2023/04/06 11:17:39;;;;;;;6.22;3.55;;;;;;;12.19;48.11;101526.22;5121163;28;20055;-68
2023/04/06 11:20:11;;;;;;;5.65;3.65;;;;;;;12.29;48.07;101531.13;5120294;28;20050;-68
2023/04/06 11:22:50;;;;;;;8.30;3.83;;;;;;;12.19;48.88;101528.06;5114844;28;20058;-68
2023/04/06 11:25:19;;;;;;;7.18;3.20;;;;;;;11.91;48.85;101515.81;5121967;28;20048;-68
2023/04/06 11:27:48;;;;;;;5.18;3.22;;;;;;;11.94;49.94;101523.47;5119752;28;20039;-68
2023/04/06 11:30:16;;;;;;;6.30;3.60;;;;;;;11.60;50.42;101524.59;5119418;28;20150;-68
2023/04/06 11:32:46;;;;;;;5.78;3.70;;;;;;;11.45;51.30;101515.13;5115906;28;20111;-68